^^
Station Historical Data
Daily Summary for June 7, 2017 Units:  English    Metric   Both
« Previous Day
Next Day »
Daily Weekly Monthly Yearly Custom
  High: Low: Average:
Temperature: 66.4 °F 49.8 °F 57.3 °F
Dew Point: 53.4 °F 47.8 °F 49.8 °F
Humidity: 94 % 55 % 77 %
Wind Speed: 4.4 mph 0.0 mph 0.3 mph
Wind Gust: 10.4 mph - -
Wind:- - ENE
Pressure: 30.06 in 29.90 in -
Precipitation: 0.03 in    
Historical Graphs
 
 
Tabular Data for June 7, 2017
Time Temperature Dew Point Pressure Wind Wind Speed Wind Gust Humidity Rainfall Rate (Hourly) solar Conditions
00:03 55.1 °F 53.4 °F 29.90 in Calm   1.2 mph 94 % 0.00 in 0.0 W/m2 RA
00:08 55.1 °F 53.4 °F 29.90 in Calm   1.2 mph 94 % 0.00 in 0.0 W/m2 RA
00:13 54.9 °F 52.9 °F 29.90 in Calm   1.2 mph 93 % 0.00 in 0.0 W/m2 OVC
00:18 54.9 °F 52.9 °F 29.90 in Calm   2.3 mph 93 % 0.00 in 0.0 W/m2 OVC
00:23 54.8 °F 52.8 °F 29.90 in Calm   2.3 mph 93 % 0.00 in 0.0 W/m2 OVC
00:28 54.6 °F 52.6 °F 29.91 in Calm   1.2 mph 93 % 0.00 in 0.0 W/m2 OVC
00:29 54.6 °F 52.6 °F 29.91 in SE 0.1 mph 1.2 mph 93 % 0.00 in 0.0 W/m2 OVC
00:34 54.6 °F 52.6 °F 29.91 in Calm   1.2 mph 93 % 0.00 in 0.0 W/m2 OVC
00:39 54.7 °F 52.7 °F 29.91 in Calm   1.2 mph 93 % 0.00 in 0.0 W/m2 OVC
00:44 54.5 °F 52.5 °F 29.91 in Calm   1.2 mph 93 % 0.00 in 0.0 W/m2 OVC
00:49 54.5 °F 52.5 °F 29.91 in Calm   1.2 mph 93 % 0.00 in 0.0 W/m2 OVC
00:54 54.4 °F 52.4 °F 29.91 in SE 0.1 mph 1.2 mph 93 % 0.00 in 0.0 W/m2 OVC
00:59 54.4 °F 52.4 °F 29.91 in East 0.1 mph 2.3 mph 93 % 0.00 in 0.0 W/m2 OVC
01:04 54.4 °F 52.4 °F 29.91 in Calm   2.3 mph 93 % 0.00 in 0.0 W/m2 OVC
01:09 54.6 °F 52.6 °F 29.92 in Calm   2.3 mph 93 % 0.00 in 0.0 W/m2 OVC
01:14 54.6 °F 52.6 °F 29.92 in Calm   1.2 mph 93 % 0.00 in 0.0 W/m2 OVC
01:19 54.5 °F 52.5 °F 29.92 in Calm   1.2 mph 93 % 0.01 in 0.0 W/m2 RA
01:24 54.3 °F 52.3 °F 29.92 in North 0.3 mph 2.3 mph 93 % 0.01 in 0.0 W/m2 RA
01:29 54.0 °F 52.0 °F 29.92 in Calm   2.3 mph 93 % 0.01 in 0.0 W/m2 OVC
01:34 53.9 °F 51.9 °F 29.92 in Calm   3.5 mph 93 % 0.02 in 0.0 W/m2 RA
01:39 53.9 °F 51.9 °F 29.92 in Calm   3.5 mph 93 % 0.02 in 0.0 W/m2 RA
01:44 53.8 °F 51.8 °F 29.92 in Calm   1.2 mph 93 % 0.02 in 0.0 W/m2 OVC
01:49 53.6 °F 51.6 °F 29.92 in NNE 0.1 mph 2.3 mph 93 % 0.02 in 0.0 W/m2 OVC
01:54 53.1 °F 51.1 °F 29.92 in NE 0.4 mph 5.8 mph 93 % 0.02 in 0.0 W/m2 OVC
01:59 52.5 °F 50.5 °F 29.92 in North 0.9 mph 6.9 mph 93 % 0.02 in 0.0 W/m2 OVC
02:04 52.0 °F 50.0 °F 29.92 in NNE 0.9 mph 6.9 mph 93 % 0.02 in 0.0 W/m2 OVC
02:09 51.7 °F 49.7 °F 29.92 in NNE 0.7 mph 5.8 mph 93 % 0.02 in 0.0 W/m2 OVC
02:14 51.3 °F 49.3 °F 29.93 in North 1.6 mph 10.4 mph 93 % 0.02 in 0.0 W/m2 OVC
02:19 51.1 °F 49.4 °F 29.93 in Calm   10.4 mph 94 % 0.01 in 0.0 W/m2 OVC
02:24 51.0 °F 49.0 °F 29.93 in NNE 0.5 mph 6.9 mph 93 % 0.01 in 0.0 W/m2 OVC
02:29 50.9 °F 49.2 °F 29.93 in NNE 0.1 mph 3.5 mph 94 % 0.01 in 0.0 W/m2 OVC
02:35 50.8 °F 49.1 °F 29.93 in Calm   3.5 mph 94 % 0.01 in 0.0 W/m2 RA
02:40 50.6 °F 48.9 °F 29.93 in NE 0.2 mph 3.5 mph 94 % 0.01 in 0.0 W/m2 RA
02:45 50.5 °F 48.8 °F 29.93 in East 0.1 mph 8.1 mph 94 % 0.01 in 0.0 W/m2 OVC
02:50 50.4 °F 48.7 °F 29.93 in Calm   8.1 mph 94 % 0.01 in 0.0 W/m2 OVC
02:55 50.4 °F 48.7 °F 29.93 in NNE 0.6 mph 3.5 mph 94 % 0.01 in 0.0 W/m2 OVC
03:00 50.5 °F 48.8 °F 29.93 in Calm   3.5 mph 94 % 0.01 in 0.0 W/m2 OVC
03:05 50.2 °F 48.5 °F 29.93 in Calm   3.5 mph 94 % 0.01 in 0.0 W/m2 OVC
03:10 50.0 °F 48.3 °F 29.93 in NNE 0.1 mph 3.5 mph 94 % 0.01 in 0.0 W/m2 OVC
03:15 49.9 °F 48.2 °F 29.93 in NE 0.5 mph 3.5 mph 94 % 0.01 in 0.0 W/m2 OVC
03:20 49.9 °F 48.2 °F 29.93 in NE 0.2 mph 3.5 mph 94 % 0.01 in 0.0 W/m2 OVC
03:25 49.9 °F 48.2 °F 29.93 in Calm   3.5 mph 94 % 0.01 in 0.0 W/m2 OVC
03:30 49.8 °F 48.1 °F 29.93 in Calm   3.5 mph 94 % 0.01 in 0.0 W/m2 OVC
03:35 49.8 °F 48.1 °F 29.93 in Calm   1.2 mph 94 % 0.00 in 0.0 W/m2 OVC
03:40 49.9 °F 48.2 °F 29.93 in Calm   1.2 mph 94 % 0.00 in 0.0 W/m2 OVC
03:45 49.9 °F 48.2 °F 29.94 in Calm     94 % 0.00 in 0.0 W/m2 OVC
03:50 49.9 °F 48.2 °F 29.94 in Calm     94 % 0.00 in 0.0 W/m2 OVC
03:55 50.1 °F 48.4 °F 29.93 in Calm     94 % 0.00 in 0.0 W/m2 OVC
04:00 50.2 °F 48.5 °F 29.94 in Calm     94 % 0.00 in 0.0 W/m2 OVC
04:05 50.3 °F 48.6 °F 29.94 in Calm     94 % 0.00 in 0.0 W/m2 OVC
04:10 50.3 °F 48.4 °F 29.94 in Calm     93 % 0.00 in 0.0 W/m2 OVC
04:15 50.2 °F 48.3 °F 29.94 in Calm     93 % 0.00 in 0.0 W/m2 OVC
04:20 50.2 °F 48.3 °F 29.94 in Calm     93 % 0.00 in 0.0 W/m2 OVC
04:25 50.3 °F 48.4 °F 29.94 in Calm     93 % 0.00 in 0.0 W/m2 OVC
04:30 50.3 °F 48.4 °F 29.94 in Calm     93 % 0.00 in 0.0 W/m2 OVC
04:35 50.5 °F 48.6 °F 29.94 in Calm     93 % 0.00 in 0.0 W/m2 OVC
04:40 50.5 °F 48.6 °F 29.94 in Calm     93 % 0.00 in 0.0 W/m2 OVC
04:45 50.4 °F 48.5 °F 29.94 in Calm     93 % 0.00 in 0.0 W/m2 OVC
04:50 50.6 °F 48.7 °F 29.94 in Calm     93 % 0.00 in 0.0 W/m2 OVC
04:55 50.9 °F 48.9 °F 29.94 in Calm   1.2 mph 93 % 0.00 in 0.0 W/m2 OVC
05:00 50.9 °F 48.9 °F 29.94 in NNE 0.7 mph 3.5 mph 93 % 0.00 in 0.0 W/m2 OVC
05:05 50.9 °F 48.9 °F 29.95 in Calm   3.5 mph 93 % 0.00 in 0.0 W/m2 OVC
05:11 50.8 °F 48.8 °F 29.95 in Calm   3.5 mph 93 % 0.00 in 0.0 W/m2 OVC
05:16 50.8 °F 48.8 °F 29.95 in Calm     93 % 0.00 in 0.0 W/m2 OVC
05:21 50.7 °F 48.7 °F 29.95 in Calm     93 % 0.00 in 0.0 W/m2 OVC
05:26 50.6 °F 48.7 °F 29.95 in NNE 0.2 mph 2.3 mph 93 % 0.00 in 0.0 W/m2 OVC
05:31 50.5 °F 48.6 °F 29.95 in NNE 0.3 mph 2.3 mph 93 % 0.00 in 0.0 W/m2 OVC
05:36 50.4 °F 48.5 °F 29.95 in Calm   2.3 mph 93 % 0.00 in 0.0 W/m2 OVC
05:41 50.5 °F 48.6 °F 29.96 in Calm   2.3 mph 93 % 0.00 in 0.0 W/m2 OVC
05:46 50.4 °F 48.5 °F 29.96 in Calm   1.2 mph 93 % 0.00 in 5.0 W/m2 OVC
05:51 50.4 °F 48.5 °F 29.96 in NNE 0.4 mph 1.2 mph 93 % 0.00 in 9.0 W/m2 OVC
05:56 50.4 °F 48.5 °F 29.96 in NNE 0.3 mph 2.3 mph 93 % 0.00 in 11.0 W/m2 OVC
06:01 50.4 °F 48.5 °F 29.96 in Calm   2.3 mph 93 % 0.00 in 18.0 W/m2 OVC
06:06 50.4 °F 48.5 °F 29.96 in North 0.8 mph 4.6 mph 93 % 0.00 in 25.0 W/m2 OVC
06:11 50.4 °F 48.2 °F 29.96 in North 0.1 mph 4.6 mph 92 % 0.00 in 30.0 W/m2 OVC
06:16 50.4 °F 48.2 °F 29.96 in NNE 0.5 mph 4.6 mph 92 % 0.00 in 39.0 W/m2 OVC
06:21 50.6 °F 48.4 °F 29.97 in NNE 0.1 mph 3.5 mph 92 % 0.00 in 47.0 W/m2 OVC
06:26 50.6 °F 48.4 °F 29.97 in NE 0.3 mph 3.5 mph 92 % 0.00 in 54.0 W/m2 OVC
06:31 50.7 °F 48.5 °F 29.97 in North 0.5 mph 6.9 mph 92 % 0.00 in 62.0 W/m2 OVC
06:37 50.7 °F 48.5 °F 29.97 in NNE 0.4 mph 6.9 mph 92 % 0.00 in 62.0 W/m2 OVC
06:42 50.9 °F 48.7 °F 29.97 in Calm   3.5 mph 92 % 0.00 in 60.0 W/m2 OVC
06:47 51.0 °F 48.5 °F 29.97 in Calm   3.5 mph 91 % 0.00 in 58.0 W/m2 OVC
06:52 51.2 °F 48.7 °F 29.97 in NNE 0.6 mph 3.5 mph 91 % 0.00 in 58.0 W/m2 OVC
06:57 51.4 °F 48.9 °F 29.98 in North 0.7 mph 3.5 mph 91 % 0.00 in 97.0 W/m2 OVC
07:02 51.5 °F 48.7 °F 29.98 in Calm   4.6 mph 90 % 0.00 in 69.0 W/m2 OVC
07:07 51.6 °F 48.8 °F 29.98 in Calm   4.6 mph 90 % 0.00 in 67.0 W/m2 OVC
07:12 51.6 °F 48.8 °F 29.98 in Calm   2.3 mph 90 % 0.00 in 74.0 W/m2 OVC
07:17 51.7 °F 48.6 °F 29.98 in North 0.1 mph 1.2 mph 89 % 0.00 in 72.0 W/m2 OVC
07:22 51.7 °F 48.6 °F 29.98 in North 0.2 mph 2.3 mph 89 % 0.00 in 98.0 W/m2 OVC
07:27 51.8 °F 48.4 °F 29.98 in Calm   2.3 mph 88 % 0.00 in 107.0 W/m2 OVC
07:32 51.8 °F 48.4 °F 29.99 in Calm   2.3 mph 88 % 0.00 in 86.0 W/m2 OVC
07:37 52.1 °F 48.7 °F 29.99 in Calm   2.3 mph 88 % 0.00 in 102.0 W/m2 OVC
07:42 51.8 °F 48.1 °F 29.99 in Calm   2.3 mph 87 % 0.00 in 100.0 W/m2 OVC
07:47 51.7 °F 48.0 °F 29.99 in North 0.3 mph 3.5 mph 87 % 0.00 in 102.0 W/m2 OVC
07:52 51.9 °F 48.2 °F 30.00 in Calm   3.5 mph 87 % 0.00 in 113.0 W/m2 OVC
07:57 51.9 °F 47.8 °F 30.00 in Calm   4.6 mph 86 % 0.00 in 113.0 W/m2 OVC
08:02 52.2 °F 48.4 °F 30.00 in Calm   4.6 mph 87 % 0.00 in 113.0 W/m2 OVC
08:07 52.2 °F 48.1 °F 30.00 in Calm   2.3 mph 86 % 0.00 in 121.0 W/m2 OVC
08:12 52.4 °F 48.3 °F 30.00 in Calm   2.3 mph 86 % 0.00 in 98.0 W/m2 OVC
08:17 52.3 °F 48.2 °F 30.00 in Calm   2.3 mph 86 % 0.00 in 100.0 W/m2 OVC
08:22 52.4 °F 48.3 °F 30.01 in Calm   1.2 mph 86 % 0.00 in 121.0 W/m2 OVC
08:27 52.5 °F 48.4 °F 30.01 in Calm   1.2 mph 86 % 0.00 in 156.0 W/m2 OVC
08:32 52.9 °F 48.8 °F 30.01 in Calm   1.2 mph 86 % 0.00 in 163.0 W/m2 OVC
08:33 53.0 °F 48.9 °F 30.01 in Calm   1.2 mph 86 % 0.00 in 172.0 W/m2 OVC
08:38 53.1 °F 48.7 °F 30.01 in Calm   2.3 mph 85 % 0.00 in 209.0 W/m2 OVC
08:43 53.3 °F 48.9 °F 30.01 in North 0.7 mph 3.5 mph 85 % 0.00 in 162.0 W/m2 OVC
08:48 53.2 °F 48.5 °F 30.01 in NNE 0.6 mph 4.6 mph 84 % 0.00 in 132.0 W/m2 OVC
08:53 53.1 °F 48.4 °F 30.02 in NNE 0.3 mph 4.6 mph 84 % 0.00 in 151.0 W/m2 OVC
08:58 53.1 °F 48.1 °F 30.02 in Calm   4.6 mph 83 % 0.00 in 165.0 W/m2 OVC
09:03 53.3 °F 48.6 °F 30.02 in North 1.0 mph 3.5 mph 84 % 0.00 in 172.0 W/m2 OVC
09:08 53.4 °F 48.4 °F 30.02 in Calm   6.9 mph 83 % 0.00 in 181.0 W/m2 OVC
09:13 53.7 °F 48.7 °F 30.02 in NNE 0.6 mph 6.9 mph 83 % 0.00 in 171.0 W/m2 OVC
09:18 53.7 °F 48.7 °F 30.03 in North 0.4 mph 3.5 mph 83 % 0.00 in 299.0 W/m2 OVC
09:23 54.3 °F 49.2 °F 30.03 in NNE 1.2 mph 3.5 mph 83 % 0.00 in 306.0 W/m2 OVC
09:28 54.3 °F 48.9 °F 30.03 in NE 2.0 mph 5.8 mph 82 % 0.00 in 285.0 W/m2 OVC
09:33 54.4 °F 48.7 °F 30.03 in NNE 0.2 mph 6.9 mph 81 % 0.00 in 316.0 W/m2 OVC
09:38 54.7 °F 49.0 °F 30.03 in Calm   6.9 mph 81 % 0.00 in 454.0 W/m2 OVC
09:43 55.3 °F 49.6 °F 30.03 in NNW 0.6 mph 3.5 mph 81 % 0.00 in 622.0 W/m2 OVC
09:48 55.4 °F 49.0 °F 30.03 in NNE 0.7 mph 3.5 mph 79 % 0.00 in 276.0 W/m2 OVC
09:53 55.3 °F 49.2 °F 30.03 in North 0.7 mph 4.6 mph 80 % 0.00 in 357.0 W/m2 OVC
09:58 55.0 °F 48.6 °F 30.03 in Calm   4.6 mph 79 % 0.00 in 380.0 W/m2 OVC
10:03 55.7 °F 49.3 °F 30.03 in NNE 1.9 mph 4.6 mph 79 % 0.00 in 320.0 W/m2 OVC
10:08 55.6 °F 49.5 °F 30.03 in NNE 0.8 mph 8.1 mph 80 % 0.00 in 350.0 W/m2 OVC
10:13 55.8 °F 49.4 °F 30.03 in Calm   8.1 mph 79 % 0.00 in 446.0 W/m2 OVC
10:18 55.4 °F 48.7 °F 30.03 in Calm   5.8 mph 78 % 0.00 in 427.0 W/m2 OVC
10:23 55.7 °F 49.3 °F 30.03 in NNE 1.4 mph 3.5 mph 79 % 0.00 in 475.0 W/m2 OVC
10:28 56.4 °F 50.0 °F 30.03 in NNE 0.6 mph 4.6 mph 79 % 0.00 in 343.0 W/m2 OVC
10:33 56.5 °F 49.7 °F 30.03 in NNE 0.4 mph 5.8 mph 78 % 0.00 in 536.0 W/m2 OVC
10:38 56.9 °F 49.8 °F 30.03 in East 0.1 mph 5.8 mph 77 % 0.00 in 517.0 W/m2 OVC
10:43 57.2 °F 49.3 °F 30.03 in Calm   4.6 mph 75 % 0.00 in 575.0 W/m2 OVC
10:48 58.5 °F 51.0 °F 30.03 in NE 1.4 mph 4.6 mph 76 % 0.00 in 656.0 W/m2 OVC
10:53 58.3 °F 50.0 °F 30.03 in Calm   4.6 mph 74 % 0.00 in 438.0 W/m2 OVC
10:58 58.1 °F 49.5 °F 30.03 in Calm   4.6 mph 73 % 0.00 in 283.0 W/m2 OVC
11:03 57.9 °F 49.7 °F 30.03 in NNE 1.5 mph 4.6 mph 74 % 0.00 in 378.0 W/m2 OVC
11:08 57.6 °F 49.4 °F 30.03 in NNE 0.5 mph 4.6 mph 74 % 0.00 in 374.0 W/m2 OVC
11:14 58.1 °F 50.2 °F 30.03 in North 0.7 mph 4.6 mph 75 % 0.00 in 362.0 W/m2 OVC
11:19 58.3 °F 50.0 °F 30.03 in NNW 1.1 mph 4.6 mph 74 % 0.00 in 271.0 W/m2 OVC
11:24 57.9 °F 49.7 °F 30.03 in North 0.6 mph 3.5 mph 74 % 0.00 in 360.0 W/m2 OVC
11:29 58.3 °F 50.4 °F 30.03 in North 0.1 mph 3.5 mph 75 % 0.00 in 350.0 W/m2 OVC
11:34 58.5 °F 49.9 °F 30.03 in NNE 0.5 mph 4.6 mph 73 % 0.00 in 417.0 W/m2 OVC
11:39 59.0 °F 50.4 °F 30.02 in NNE 1.6 mph 4.6 mph 73 % 0.00 in 411.0 W/m2 OVC
11:44 59.4 °F 50.4 °F 30.02 in Calm   4.6 mph 72 % 0.00 in 1157.0 W/m2 OVC
11:49 60.7 °F 51.6 °F 30.02 in North 2.7 mph 4.6 mph 72 % 0.00 in 1048.0 W/m2 OVC
11:54 59.8 °F 49.6 °F 30.02 in North 0.7 mph 4.6 mph 69 % 0.00 in 1209.0 W/m2 OVC
11:59 59.4 °F 50.0 °F 30.02 in Calm   3.5 mph 71 % 0.00 in 383.0 W/m2 OVC
12:04 59.9 °F 50.5 °F 30.02 in NNE 0.5 mph 3.5 mph 71 % 0.00 in 385.0 W/m2 OVC
12:09 60.6 °F 50.4 °F 30.02 in North 1.2 mph 6.9 mph 69 % 0.00 in 399.0 W/m2 OVC
12:14 60.9 °F 50.7 °F 30.02 in NE 2.7 mph 6.9 mph 69 % 0.00 in 483.0 W/m2 OVC
12:19 60.5 °F 50.7 °F 30.02 in Calm   6.9 mph 70 % 0.00 in 482.0 W/m2 OVC
12:24 60.9 °F 50.3 °F 30.02 in North 0.2 mph 6.9 mph 68 % 0.00 in 464.0 W/m2 OVC
12:29 61.2 °F 50.9 °F 30.02 in Calm   3.5 mph 69 % 0.00 in 606.0 W/m2 OVC
12:34 60.9 °F 50.3 °F 30.02 in NNE 0.7 mph 3.5 mph 68 % 0.00 in 526.0 W/m2 OVC
12:39 61.7 °F 50.6 °F 30.02 in Calm   3.5 mph 67 % 0.00 in 471.0 W/m2 OVC
12:44 61.5 °F 50.0 °F 30.02 in Calm   5.8 mph 66 % 0.00 in 464.0 W/m2 OVC
12:49 61.5 °F 50.0 °F 30.01 in Calm   5.8 mph 66 % 0.00 in 218.0 W/m2 OVC
12:54 61.3 °F 49.8 °F 30.02 in NNE 4.4 mph 6.9 mph 66 % 0.00 in 167.0 W/m2 OVC
12:59 61.0 °F 50.0 °F 30.01 in Calm   9.2 mph 67 % 0.00 in 230.0 W/m2 OVC
13:04 61.1 °F 50.1 °F 30.01 in NNE 0.3 mph 9.2 mph 67 % 0.00 in 267.0 W/m2 OVC
13:09 61.5 °F 50.0 °F 30.01 in Calm   4.6 mph 66 % 0.00 in 301.0 W/m2 OVC
13:14 61.6 °F 50.1 °F 30.02 in North 0.1 mph 4.6 mph 66 % 0.00 in 257.0 W/m2 OVC
13:19 61.6 °F 50.5 °F 30.02 in Calm   6.9 mph 67 % 0.00 in 234.0 W/m2 OVC
13:24 61.7 °F 50.6 °F 30.02 in NNE 1.9 mph 6.9 mph 67 % 0.00 in 207.0 W/m2 OVC
13:29 61.5 °F 50.0 °F 30.02 in North 2.4 mph 4.6 mph 66 % 0.00 in 244.0 W/m2 OVC
13:34 61.7 °F 49.4 °F 30.01 in NNE 0.7 mph 4.6 mph 64 % 0.00 in 316.0 W/m2 OVC
13:39 62.0 °F 50.1 °F 30.01 in NNE 0.3 mph 4.6 mph 65 % 0.00 in 420.0 W/m2 OVC
13:44 62.7 °F 50.8 °F 30.01 in Calm   3.5 mph 65 % 0.00 in 482.0 W/m2 OVC
13:49 62.8 °F 50.4 °F 30.01 in NNE 1.2 mph 4.6 mph 64 % 0.00 in 420.0 W/m2 OVC
13:50 62.8 °F 50.4 °F 30.01 in NNE 1.0 mph 4.6 mph 64 % 0.00 in 415.0 W/m2 OVC
13:55 62.9 °F 50.1 °F 30.01 in Calm   4.0 mph 63 % 0.00 in 443.0 W/m2 OVC
14:00 63.2 °F 50.4 °F 30.01 in Calm   3.5 mph 63 % 0.00 in 545.0 W/m2 OVC
14:05 64.2 °F 50.0 °F 30.01 in NNE 2.2 mph 4.6 mph 60 % 0.00 in 670.0 W/m2 OVC
14:10 63.9 °F 49.3 °F 30.01 in North 0.1 mph 4.6 mph 59 % 0.00 in 462.0 W/m2 OVC
14:15 63.9 °F 49.7 °F 30.01 in NE 1.7 mph 4.6 mph 60 % 0.00 in 397.0 W/m2 OVC
14:20 63.7 °F 50.0 °F 30.01 in North 1.7 mph 4.6 mph 61 % 0.00 in 462.0 W/m2 OVC
14:25 63.5 °F 49.8 °F 30.01 in Calm   4.6 mph 61 % 0.00 in 471.0 W/m2 OVC
14:30 64.5 °F 49.8 °F 30.01 in NW 0.3 mph 5.8 mph 59 % 0.00 in 759.0 W/m2 OVC
14:31 64.5 °F 49.8 °F 30.01 in Calm   5.8 mph 59 % 0.00 in 759.0 W/m2 OVC
14:36 64.6 °F 49.9 °F 30.01 in NNW 2.2 mph 5.8 mph 59 % 0.00 in 366.0 W/m2 OVC
14:41 63.8 °F 49.2 °F 30.01 in NNW 0.2 mph 5.8 mph 59 % 0.00 in 195.0 W/m2 OVC
14:46 63.7 °F 50.0 °F 30.01 in North 2.3 mph 10.4 mph 61 % 0.00 in 160.0 W/m2 OVC
14:51 63.6 °F 49.5 °F 30.01 in NNE 0.6 mph 10.4 mph 60 % 0.00 in 146.0 W/m2 OVC
14:56 63.1 °F 48.5 °F 30.01 in NNE 0.2 mph 4.6 mph 59 % 0.00 in 155.0 W/m2 OVC
15:01 63.1 °F 49.4 °F 30.01 in NNE 0.4 mph 4.6 mph 61 % 0.00 in 211.0 W/m2 OVC
15:06 63.1 °F 49.4 °F 30.01 in Calm   3.5 mph 61 % 0.00 in 285.0 W/m2 OVC
15:11 63.5 °F 49.8 °F 30.01 in NNE 0.5 mph 3.5 mph 61 % 0.00 in 336.0 W/m2 OVC
15:16 63.8 °F 50.1 °F 30.01 in NNE 0.1 mph 4.6 mph 61 % 0.00 in 410.0 W/m2 OVC
15:21 64.1 °F 49.5 °F 30.01 in NNE 0.1 mph 4.6 mph 59 % 0.00 in 482.0 W/m2 OVC
15:26 64.6 °F 50.8 °F 30.01 in NNW 0.1 mph 3.5 mph 61 % 0.00 in 577.0 W/m2 OVC
15:31 65.0 °F 50.3 °F 30.01 in NE 2.1 mph 3.5 mph 59 % 0.00 in 476.0 W/m2 OVC
15:36 65.2 °F 50.0 °F 30.01 in NNE 1.8 mph 4.6 mph 58 % 0.00 in 624.0 W/m2 OVC
15:41 65.5 °F 48.9 °F 30.00 in North 1.9 mph 8.1 mph 55 % 0.00 in 446.0 W/m2 OVC
15:47 65.4 °F 49.8 °F 30.01 in NNE 1.5 mph 8.1 mph 57 % 0.00 in 355.0 W/m2 OVC
15:52 64.9 °F 48.8 °F 30.01 in Calm   4.6 mph 56 % 0.00 in 288.0 W/m2 OVC
15:57 64.7 °F 48.6 °F 30.01 in NNE 0.5 mph 4.6 mph 56 % 0.00 in 290.0 W/m2 OVC
16:02 64.7 °F 49.6 °F 30.01 in NNE 0.1 mph 3.5 mph 58 % 0.00 in 316.0 W/m2 BKN
16:07 65.5 °F 50.8 °F 30.01 in Calm   3.5 mph 59 % 0.00 in 348.0 W/m2 BKN
16:12 65.6 °F 49.5 °F 30.01 in Calm   3.5 mph 56 % 0.00 in 364.0 W/m2 BKN
16:17 65.7 °F 49.6 °F 30.01 in North 1.7 mph 4.6 mph 56 % 0.00 in 352.0 W/m2 BKN
16:22 65.5 °F 49.4 °F 30.01 in North 0.2 mph 4.6 mph 56 % 0.00 in 350.0 W/m2 BKN
16:27 65.4 °F 49.8 °F 30.01 in Calm   4.6 mph 57 % 0.00 in 339.0 W/m2 BKN
16:32 65.4 °F 49.8 °F 30.01 in North 1.1 mph 3.5 mph 57 % 0.00 in 397.0 W/m2 BKN
16:37 65.8 °F 49.2 °F 30.01 in NNW 0.7 mph 5.8 mph 55 % 0.00 in 436.0 W/m2 BKN
16:42 66.4 °F 50.7 °F 30.01 in North 1.0 mph 5.8 mph 57 % 0.00 in 417.0 W/m2 BKN
16:47 66.2 °F 49.6 °F 30.01 in NNE 2.3 mph 5.8 mph 55 % 0.00 in 387.0 W/m2 BKN
16:52 66.0 °F 49.8 °F 30.01 in NNE 0.1 mph 4.6 mph 56 % 0.00 in 236.0 W/m2 BKN
16:57 65.8 °F 49.2 °F 30.01 in NNE 0.5 mph 4.6 mph 55 % 0.00 in 153.0 W/m2 BKN
17:02 65.2 °F 49.1 °F 30.01 in Calm   4.6 mph 56 % 0.00 in 105.0 W/m2 OVC
17:07 65.0 °F 48.9 °F 30.02 in North 1.0 mph 4.6 mph 56 % 0.00 in 84.0 W/m2 OVC
17:12 65.0 °F 48.4 °F 30.02 in NNE 0.6 mph 8.1 mph 55 % 0.00 in 97.0 W/m2 OVC
17:17 64.8 °F 48.7 °F 30.02 in Calm   8.1 mph 56 % 0.00 in 127.0 W/m2 OVC
17:22 64.8 °F 49.2 °F 30.02 in Calm   3.5 mph 57 % 0.00 in 156.0 W/m2 OVC
17:27 64.7 °F 49.1 °F 30.02 in Calm   3.5 mph 57 % 0.00 in 155.0 W/m2 OVC
17:32 64.8 °F 49.7 °F 30.02 in Calm   1.2 mph 58 % 0.00 in 149.0 W/m2 OVC
17:37 64.7 °F 49.6 °F 30.02 in Calm   1.2 mph 58 % 0.00 in 141.0 W/m2 OVC
17:42 64.5 °F 49.4 °F 30.02 in Calm     58 % 0.00 in 113.0 W/m2 OVC
17:47 64.4 °F 49.8 °F 30.02 in Calm     59 % 0.00 in 98.0 W/m2 OVC
17:52 64.3 °F 49.7 °F 30.02 in Calm     59 % 0.00 in 97.0 W/m2 OVC
17:57 64.3 °F 49.2 °F 30.02 in Calm     58 % 0.00 in 105.0 W/m2 OVC
18:07 64.6 °F 49.0 °F 30.02 in East 0.5 mph 2.3 mph 57 % 0.00 in 113.0 W/m2 OVC
18:12 64.7 °F 49.6 °F 30.02 in Calm   2.3 mph 58 % 0.00 in 104.0 W/m2 OVC
18:17 64.6 °F 49.5 °F 30.02 in Calm   2.3 mph 58 % 0.00 in 100.0 W/m2 OVC
18:23 64.4 °F 49.3 °F 30.02 in Calm   1.2 mph 58 % 0.00 in 97.0 W/m2 OVC
18:28 64.5 °F 49.4 °F 30.02 in Calm   2.3 mph 58 % 0.00 in 100.0 W/m2 OVC
18:33 64.3 °F 49.7 °F 30.02 in Calm   3.5 mph 59 % 0.00 in 107.0 W/m2 OVC
18:38 64.4 °F 50.2 °F 30.02 in Calm   3.5 mph 60 % 0.00 in 105.0 W/m2 OVC
18:43 64.3 °F 49.7 °F 30.02 in Calm   1.2 mph 59 % 0.00 in 97.0 W/m2 OVC
18:48 64.2 °F 49.6 °F 30.02 in Calm     59 % 0.00 in 95.0 W/m2 OVC
18:53 64.2 °F 49.6 °F 30.02 in Calm   3.5 mph 59 % 0.00 in 93.0 W/m2 OVC
18:58 64.2 °F 49.6 °F 30.03 in South 1.2 mph 3.5 mph 59 % 0.00 in 77.0 W/m2 OVC
19:03 64.3 °F 49.7 °F 30.02 in Calm   3.5 mph 59 % 0.00 in 70.0 W/m2 OVC
19:08 64.0 °F 49.8 °F 30.03 in Calm   3.5 mph 60 % 0.00 in 62.0 W/m2 OVC
19:13 63.9 °F 49.3 °F 30.02 in Calm   2.3 mph 59 % 0.00 in 56.0 W/m2 OVC
19:18 63.9 °F 49.3 °F 30.02 in South 0.4 mph 2.3 mph 59 % 0.00 in 54.0 W/m2 OVC
19:23 63.9 °F 49.7 °F 30.03 in Calm   2.3 mph 60 % 0.00 in 49.0 W/m2 OVC
19:28 63.7 °F 50.0 °F 30.03 in Calm   2.3 mph 61 % 0.00 in 46.0 W/m2 OVC
19:33 63.8 °F 50.1 °F 30.03 in Calm     61 % 0.00 in 40.0 W/m2 OVC
19:38 64.0 °F 50.3 °F 30.03 in Calm     61 % 0.00 in 33.0 W/m2 OVC
19:43 63.9 °F 50.6 °F 30.03 in Calm   1.2 mph 62 % 0.00 in 30.0 W/m2 OVC
19:48 63.7 °F 50.4 °F 30.03 in Calm   1.2 mph 62 % 0.00 in 39.0 W/m2 OVC
19:53 63.6 °F 50.8 °F 30.03 in Calm   2.3 mph 63 % 0.00 in 35.0 W/m2 OVC
19:58 63.5 °F 50.2 °F 30.03 in Calm   2.3 mph 62 % 0.00 in 28.0 W/m2 OVC
20:03 63.6 °F 50.8 °F 30.03 in Calm   1.2 mph 63 % 0.00 in 21.0 W/m2 OVC
20:08 63.5 °F 50.7 °F 30.03 in Calm     63 % 0.00 in 19.0 W/m2 OVC
20:13 63.4 °F 50.6 °F 30.03 in Calm     63 % 0.00 in 14.0 W/m2 OVC
20:18 63.3 °F 50.9 °F 30.03 in Calm     64 % 0.00 in 9.0 W/m2 OVC
20:23 62.9 °F 51.0 °F 30.03 in Calm     65 % 0.00 in 5.0 W/m2 OVC
20:28 62.6 °F 50.7 °F 30.03 in Calm     65 % 0.00 in 0.0 W/m2 OVC
20:33 62.5 °F 50.6 °F 30.03 in Calm     65 % 0.00 in 0.0 W/m2 OVC
20:38 62.3 °F 50.8 °F 30.03 in Calm     66 % 0.00 in 0.0 W/m2 OVC
20:43 61.7 °F 50.6 °F 30.03 in Calm     67 % 0.00 in 0.0 W/m2 OVC
20:48 61.1 °F 50.5 °F 30.03 in Calm     68 % 0.00 in 0.0 W/m2 OVC
20:54 60.3 °F 50.5 °F 30.03 in Calm     70 % 0.00 in 0.0 W/m2 OVC
20:59 60.1 °F 50.7 °F 30.03 in Calm     71 % 0.00 in 0.0 W/m2 OVC
21:04 59.8 °F 50.8 °F 30.03 in Calm     72 % 0.00 in 0.0 W/m2 CLR
21:09 59.4 °F 50.4 °F 30.04 in Calm     72 % 0.00 in 0.0 W/m2 CLR
21:14 59.2 °F 50.5 °F 30.04 in Calm     73 % 0.00 in 0.0 W/m2 CLR
21:19 58.8 °F 50.5 °F 30.04 in Calm     74 % 0.00 in 0.0 W/m2 CLR
21:24 58.4 °F 50.5 °F 30.04 in Calm     75 % 0.00 in 0.0 W/m2 CLR
21:29 58.1 °F 50.9 °F 30.04 in Calm     77 % 0.00 in 0.0 W/m2 CLR
21:34 57.9 °F 51.1 °F 30.05 in Calm     78 % 0.00 in 0.0 W/m2 CLR
21:39 57.9 °F 51.1 °F 30.05 in Calm     78 % 0.00 in 0.0 W/m2 CLR
21:44 57.7 °F 51.2 °F 30.05 in Calm     79 % 0.00 in 0.0 W/m2 CLR
21:49 57.3 °F 50.8 °F 30.05 in Calm     79 % 0.00 in 0.0 W/m2 CLR
21:54 56.9 °F 50.8 °F 30.05 in Calm     80 % 0.00 in 0.0 W/m2 CLR
21:59 56.6 °F 50.8 °F 30.05 in Calm     81 % 0.00 in 0.0 W/m2 CLR
22:04 56.5 °F 50.7 °F 30.05 in Calm     81 % 0.00 in 0.0 W/m2 CLR
22:09 56.4 °F 50.6 °F 30.05 in Calm     81 % 0.00 in 0.0 W/m2 CLR
22:14 56.2 °F 50.4 °F 30.05 in Calm     81 % 0.00 in 0.0 W/m2 CLR
22:20 56.3 °F 50.9 °F 30.05 in Calm     82 % 0.00 in 0.0 W/m2 CLR
22:24 56.1 °F 50.7 °F 30.05 in Calm     82 % 0.00 in 0.0 W/m2 CLR
22:30 56.0 °F 50.6 °F 30.06 in Calm     82 % 0.00 in 0.0 W/m2 CLR
22:35 56.0 °F 50.6 °F 30.05 in Calm     82 % 0.00 in 0.0 W/m2 CLR
22:40 55.8 °F 50.7 °F 30.05 in Calm     83 % 0.00 in 0.0 W/m2 CLR
22:45 55.5 °F 50.4 °F 30.05 in Calm     83 % 0.00 in 0.0 W/m2 CLR
22:50 55.2 °F 50.8 °F 30.05 in Calm     85 % 0.00 in 0.0 W/m2 CLR
22:55 55.1 °F 50.7 °F 30.05 in Calm     85 % 0.00 in 0.0 W/m2 CLR
23:00 54.9 °F 50.8 °F 30.06 in Calm     86 % 0.00 in 0.0 W/m2 CLR
23:05 54.7 °F 50.9 °F 30.06 in Calm     87 % 0.00 in 0.0 W/m2 CLR
23:10 54.5 °F 50.7 °F 30.06 in Calm     87 % 0.00 in 0.0 W/m2 CLR
23:15 54.4 °F 50.9 °F 30.06 in Calm     88 % 0.00 in 0.0 W/m2 CLR
23:20 54.4 °F 50.9 °F 30.06 in Calm     88 % 0.00 in 0.0 W/m2 CLR
23:25 54.1 °F 50.6 °F 30.06 in Calm     88 % 0.00 in 0.0 W/m2 CLR
23:30 53.8 °F 50.3 °F 30.06 in Calm     88 % 0.00 in 0.0 W/m2 CLR
23:35 53.4 °F 50.2 °F 30.06 in Calm     89 % 0.00 in 0.0 W/m2 CLR
23:40 53.5 °F 50.3 °F 30.06 in Calm     89 % 0.00 in 0.0 W/m2 CLR
23:45 53.5 °F 50.3 °F 30.06 in Calm     89 % 0.00 in 0.0 W/m2 CLR
23:50 53.4 °F 50.2 °F 30.06 in Calm     89 % 0.00 in 0.0 W/m2 CLR
23:55 53.4 °F 50.2 °F 30.06 in Calm     89 % 0.00 in 0.0 W/m2 CLR
Air Products Campus Weather
Compliments of Weather Underground - 3.5 mb